Time;durP1;ratioP1;P1;durP2;ratioP2;P2;SDS_P1;SDS_P2;PMS_P1;PMS_P2;Temp;Humidity;BMP_temperature;BMP_pressure;BME280_temperature;BME280_humidity;BME280_pressure;Samples;Min_cycle;Max_cycle;Signal;HPM_P1;HPM_P2
2022/07/11 00:02:05;;;;;;;;;;;;;;;16.05;100.00;-25518.88;5056674;28;19958;-75
2022/07/11 00:04:32;;;;;;;;;;;;;;;16.03;100.00;-25518.28;5074618;28;19913;-74
2022/07/11 00:06:57;;;;;;;;;;;;;;;16.07;100.00;-25519.31;5055417;28;19916;-74
2022/07/11 00:09:23;;;;;;;;;;;;;;;16.18;100.00;-25522.38;5057218;28;19916;-74
2022/07/11 00:11:48;;;;;;;;;;;;;;;16.24;100.00;-25524.13;5056597;28;19954;-74
2022/07/11 00:14:14;;;;;;;;;;;;;;;16.33;100.00;-25526.72;5056404;28;20242;-73
2022/07/11 00:16:39;;;;;;;;;;;;;;;16.37;100.00;-25527.75;5055933;28;19923;-74
2022/07/11 00:19:05;;;;;;;;;;;;;;;16.42;100.00;-25529.34;5062782;28;19960;-76
2022/07/11 00:21:31;;;;;;;;;;;;;;;16.37;100.00;-25527.88;5075743;28;19964;-77
2022/07/11 00:23:57;;;;;;;;;;;;;;;16.35;100.00;-25527.16;5077145;28;19912;-78
2022/07/11 00:26:22;;;;;;;;;;;;;;;16.30;100.00;-25525.84;5078012;28;20006;-78
2022/07/11 00:28:48;;;;;;;;;;;;;;;16.33;100.00;-25526.88;5077090;28;20032;-76
2022/07/11 00:31:13;;;;;;;;;;;;;;;16.29;100.00;-25525.72;5076957;28;19916;-78
2022/07/11 00:33:42;;;;;;;;;;;;;;;16.33;100.00;-25526.88;5076926;28;19919;-78
2022/07/11 00:36:08;;;;;;;;;;;;;;;16.38;100.00;-25528.19;5060881;28;19923;-76
2022/07/11 00:38:33;;;;;;;;;;;;;;;16.35;100.00;-25527.31;5070279;28;19916;-77
2022/07/11 00:40:58;;;;;;;;;;;;;;;16.38;100.00;-25528.19;5075673;28;19919;-77
2022/07/11 00:43:36;;;;;;;;;;;;;;;16.36;100.00;-25527.44;5075355;28;19985;-78
2022/07/11 00:46:02;;;;;;;;;;;;;;;16.34;100.00;-25527.00;5056677;28;19912;-77
2022/07/11 00:48:28;;;;;;;;;;;;;;;16.43;100.00;-25529.47;5072453;28;20279;-77
2022/07/11 00:50:53;;;;;;;;;;;;;;;16.47;100.00;-25530.66;5076618;28;19912;-77
2022/07/11 00:53:19;;;;;;;;;;;;;;;16.45;100.00;-25530.22;5077103;28;20318;-76
2022/07/11 00:55:45;;;;;;;;;;;;;;;16.47;100.00;-25530.66;5076817;28;19957;-76
2022/07/11 00:58:11;;;;;;;;;;;;;;;16.49;100.00;-25531.38;5076836;28;19935;-77
2022/07/11 01:00:36;;;;;;;;;;;;;;;16.46;100.00;-25530.50;5074537;28;19912;-76
2022/07/11 01:03:02;;;;;;;;;;;;;;;16.46;100.00;-25530.50;5075375;28;20357;-75
2022/07/11 01:05:28;;;;;;;;;;;;;;;16.51;100.00;-25531.94;5076126;28;19912;-76
2022/07/11 01:07:54;;;;;;;;;;;;;;;16.43;100.00;-25529.63;5075329;28;20383;-77
2022/07/11 01:10:19;;;;;;;;;;;;;;;16.41;100.00;-25529.03;5074913;28;19918;-75
2022/07/11 01:12:45;;;;;;;;;;;;;;;16.47;100.00;-25530.66;5075256;28;19923;-77
2022/07/11 01:15:13;;;;;;;;;;;;;;;16.50;100.00;-25531.53;5066833;28;20364;-77
2022/07/11 01:17:39;;;;;;;;;;;;;;;16.46;100.00;-25530.50;5069527;28;19912;-76
2022/07/11 01:20:04;;;;;;;;;;;;;;;16.46;100.00;-25530.50;5075009;28;19920;-79
2022/07/11 01:22:34;;;;;;;;;;;;;;;16.49;100.00;-25531.38;5076276;28;19911;-77
2022/07/11 01:24:59;;;;;;;;;;;;;;;16.44;100.00;-25529.78;5076686;28;19916;-78
2022/07/11 01:27:26;;;;;;;;;;;;;;;16.40;100.00;-25528.75;5076374;28;19927;-77
2022/07/11 01:29:51;;;;;;;;;;;;;;;16.43;100.00;-25529.63;5075629;28;20246;-78
2022/07/11 01:32:21;;;;;;;;;;;;;;;16.41;100.00;-25529.03;5073403;28;19926;-78
2022/07/11 01:34:48;;;;;;;;;;;;;;;16.41;100.00;-25529.03;5067850;28;19966;-78
2022/07/11 01:37:14;;;;;;;;;;;;;;;16.45;100.00;-25530.22;5093106;28;19912;-73
2022/07/11 01:39:40;;;;;;;;;;;;;;;16.48;100.00;-25531.09;5056330;28;19920;-77
2022/07/11 01:42:05;;;;;;;;;;;;;;;16.45;100.00;-25530.06;5060813;28;20372;-76
2022/07/11 01:44:33;;;;;;;;;;;;;;;16.48;100.00;-25530.94;5056054;28;19963;-76
2022/07/11 01:46:58;;;;;;;;;;;;;;;16.41;100.00;-25529.03;5056061;28;20307;-77
2022/07/11 01:49:23;;;;;;;;;;;;;;;16.41;100.00;-25529.03;5064469;28;19920;-77
2022/07/11 01:51:49;;;;;;;;;;;;;;;16.46;100.00;-25530.50;5056343;28;19912;-76
2022/07/11 01:54:16;;;;;;;;;;;;;;;16.46;100.00;-25530.50;5056414;28;19931;-77
2022/07/11 01:56:41;;;;;;;;;;;;;;;16.36;100.00;-25527.59;5056414;28;19908;-77
2022/07/11 01:59:07;;;;;;;;;;;;;;;16.36;100.00;-25527.44;5056007;28;20388;-75
2022/07/11 02:01:32;;;;;;;;;;;;;;;16.29;100.00;-25525.56;5055712;28;19958;-77
2022/07/11 02:03:58;;;;;;;;;;;;;;;16.35;100.00;-25527.16;5068430;28;19955;-77
2022/07/11 02:06:23;;;;;;;;;;;;;;;16.37;100.00;-25527.88;5075931;28;19912;-78
2022/07/11 02:08:49;;;;;;;;;;;;;;;16.41;100.00;-25529.03;5076030;28;19908;-78
2022/07/11 02:11:14;;;;;;;;;;;;;;;16.50;100.00;-25531.53;5076152;28;19916;-77
2022/07/11 02:13:39;;;;;;;;;;;;;;;16.54;100.00;-25532.53;5072625;28;19938;-75
2022/07/11 02:16:04;;;;;;;;;;;;;;;16.51;100.00;-25531.81;5074770;28;19912;-77
2022/07/11 02:18:30;;;;;;;;;;;;;;;16.42;100.00;-25529.34;5075593;28;19937;-76
2022/07/11 02:20:55;;;;;;;;;;;;;;;16.50;100.00;-25531.66;5061686;28;20003;-75
2022/07/11 02:23:21;;;;;;;;;;;;;;;16.43;100.00;-25529.47;5055230;28;20003;-75
2022/07/11 02:25:46;;;;;;;;;;;;;;;16.49;100.00;-25531.22;5055479;28;19947;-77
2022/07/11 02:28:12;;;;;;;;;;;;;;;16.49;100.00;-25531.38;5057842;28;19912;-76
2022/07/11 02:30:38;;;;;;;;;;;;;;;16.48;100.00;-25530.94;5074774;28;20364;-76
2022/07/11 02:33:04;;;;;;;;;;;;;;;16.51;100.00;-25531.94;5072356;28;19912;-76
2022/07/11 02:35:29;;;;;;;;;;;;;;;16.54;100.00;-25532.69;5055302;28;19915;-75
2022/07/11 02:37:55;;;;;;;;;;;;;;;16.50;100.00;-25531.53;5055599;28;20375;-75
2022/07/11 02:40:20;;;;;;;;;;;;;;;16.52;100.00;-25532.09;5056320;28;20349;-74
2022/07/11 02:42:45;;;;;;;;;;;;;;;16.50;100.00;-25531.66;5073778;28;19926;-74
2022/07/11 02:45:11;;;;;;;;;;;;;;;16.48;100.00;-25530.94;5075591;28;19912;-74
2022/07/11 02:47:38;;;;;;;;;;;;;;;16.51;100.00;-25531.94;5092816;28;19908;-74
2022/07/11 02:50:03;;;;;;;;;;;;;;;16.52;100.00;-25532.25;5075463;28;19912;-76
2022/07/11 02:52:29;;;;;;;;;;;;;;;16.56;100.00;-25533.09;5074490;28;19918;-76
2022/07/11 02:54:54;;;;;;;;;;;;;;;16.57;100.00;-25533.41;5066971;28;19924;-76
2022/07/11 02:57:19;;;;;;;;;;;;;;;16.61;100.00;-25534.56;5079734;28;20369;-76
2022/07/11 02:59:44;;;;;;;;;;;;;;;16.58;100.00;-25533.69;5095207;28;20404;-76
2022/07/11 03:02:10;;;;;;;;;;;;;;;16.57;100.00;-25533.41;5080235;28;19916;-76
2022/07/11 03:04:35;;;;;;;;;;;;;;;16.62;100.00;-25535.00;5073967;28;19985;-77
2022/07/11 03:07:00;;;;;;;;;;;;;;;16.58;100.00;-25533.69;5072826;28;20354;-77
2022/07/11 03:09:26;;;;;;;;;;;;;;;16.57;100.00;-25533.53;5068115;28;19916;-75
2022/07/11 03:11:52;;;;;;;;;;;;;;;16.59;100.00;-25533.97;5073781;28;19911;-76
2022/07/11 03:14:18;;;;;;;;;;;;;;;16.55;100.00;-25532.81;5074269;28;19912;-76
2022/07/11 03:16:43;;;;;;;;;;;;;;;16.51;100.00;-25531.94;5061645;28;20360;-76
2022/07/11 03:19:09;;;;;;;;;;;;;;;16.59;100.00;-25533.97;5072232;28;19978;-75
2022/07/11 03:21:34;;;;;;;;;;;;;;;16.61;100.00;-25534.56;5056271;28;19927;-76
2022/07/11 03:23:59;;;;;;;;;;;;;;;16.60;100.00;-25534.28;5074415;28;20244;-74
2022/07/11 03:26:24;;;;;;;;;;;;;;;16.52;100.00;-25532.25;5074358;28;19916;-77
2022/07/11 03:28:50;;;;;;;;;;;;;;;16.43;100.00;-25529.47;5057441;28;20015;-77
2022/07/11 03:31:15;;;;;;;;;;;;;;;16.55;100.00;-25532.81;5073865;28;19955;-75
2022/07/11 03:33:43;;;;;;;;;;;;;;;16.51;100.00;-25531.94;5075111;28;19912;-75
2022/07/11 03:36:08;;;;;;;;;;;;;;;16.55;100.00;-25532.97;5078277;28;20003;-75
2022/07/11 03:38:33;;;;;;;;;;;;;;;16.56;100.00;-25533.25;5065570;28;19962;-79
2022/07/11 03:40:58;;;;;;;;;;;;;;;16.58;100.00;-25533.69;5077294;28;19923;-76
2022/07/11 03:43:24;;;;;;;;;;;;;;;16.59;100.00;-25534.13;5078402;28;19912;-77
2022/07/11 03:45:49;;;;;;;;;;;;;;;16.63;100.00;-25535.16;5080264;28;19912;-76
2022/07/11 03:48:14;;;;;;;;;;;;;;;16.66;100.00;-25536.16;5074047;28;19916;-77
2022/07/11 03:50:40;;;;;;;;;;;;;;;16.60;100.00;-25534.41;5077909;28;20378;-78
2022/07/11 03:53:06;;;;;;;;;;;;;;;16.64;100.00;-25535.44;5078049;28;19916;-77
2022/07/11 03:55:34;;;;;;;;;;;;;;;16.70;100.00;-25537.16;5096324;28;19931;-77
2022/07/11 03:57:59;;;;;;;;;;;;;;;16.70;100.00;-25537.16;5078687;28;19912;-77
2022/07/11 04:00:24;;;;;;;;;;;;;;;16.70;100.00;-25537.16;5074415;28;19920;-76
2022/07/11 04:02:51;;;;;;;;;;;;;;;16.67;100.00;-25536.44;5077811;28;19919;-78
2022/07/11 04:05:16;;;;;;;;;;;;;;;16.65;100.00;-25535.88;5078336;28;20006;-76
2022/07/11 04:07:42;;;;;;;;;;;;;;;16.68;100.00;-25536.75;5060875;28;19959;-77
2022/07/11 04:10:08;;;;;;;;;;;;;;;16.68;100.00;-25536.59;5074181;28;19920;-78
2022/07/11 04:12:34;;;;;;;;;;;;;;;16.69;100.00;-25537.03;5057903;28;19981;-77
2022/07/11 04:14:59;;;;;;;;;;;;;;;16.77;100.00;-25539.22;5064902;28;20367;-78
2022/07/11 04:17:26;;;;;;;;;;;;;;;16.79;100.00;-25539.78;5077179;28;20026;-79
2022/07/11 04:19:52;;;;;;;;;;;;;;;16.66;100.00;-25536.00;5057710;28;19912;-79
2022/07/11 04:22:17;;;;;;;;;;;;;;;16.73;100.00;-25538.03;5058407;28;19912;-80
2022/07/11 04:24:44;;;;;;;;;;;;;;;16.72;100.00;-25537.75;5074570;28;19923;-81
2022/07/11 04:27:09;;;;;;;;;;;;;;;16.73;100.00;-25538.03;5074128;28;19916;-80
2022/07/11 04:29:34;;;;;;;;;;;;;;;16.75;100.00;-25538.47;5077986;28;19916;-80
2022/07/11 04:31:59;;;;;;;;;;;;;;;16.72;100.00;-25537.75;5078030;28;19912;-80
2022/07/11 04:34:32;;;;;;;;;;;;;;;16.72;100.00;-25537.59;5077882;28;20272;-80
2022/07/11 04:36:57;;;;;;;;;;;;;;;16.71;100.00;-25537.31;5078681;28;19970;-80
2022/07/11 04:39:22;;;;;;;;;;;;;;;16.71;100.00;-25537.31;5079585;28;20261;-78
2022/07/11 04:41:48;;;;;;;;;;;;;;;16.70;100.00;-25537.16;5055861;28;20280;-78
2022/07/11 04:44:13;;;;;;;;;;;;;;;16.71;100.00;-25537.47;5056904;28;19935;-79
2022/07/11 04:46:38;;;;;;;;;;;;;;;16.68;100.00;-25536.59;5055882;28;19936;-78
2022/07/11 04:49:04;;;;;;;;;;;;;;;16.67;100.00;-25536.31;5057033;28;19920;-78
2022/07/11 04:51:29;;;;;;;;;;;;;;;16.65;100.00;-25535.88;5074872;28;19958;-78
2022/07/11 04:53:56;;;;;;;;;;;;;;;16.68;100.00;-25536.59;5074252;28;19916;-78
2022/07/11 04:56:21;;;;;;;;;;;;;;;16.72;100.00;-25537.59;5090555;28;19918;-78
2022/07/11 04:58:48;;;;;;;;;;;;;;;16.74;100.00;-25538.34;5090295;28;19912;-78
2022/07/11 05:01:13;;;;;;;;;;;;;;;16.71;100.00;-25537.47;5056997;28;19943;-78
2022/07/11 05:03:40;;;;;;;;;;;;;;;16.76;100.00;-25538.78;5078689;28;19935;-78
2022/07/11 05:06:06;;;;;;;;;;;;;;;16.78;100.00;-25539.34;5073586;28;19919;-80
2022/07/11 05:08:36;;;;;;;;;;;;;;;16.78;100.00;-25539.34;5066636;28;19934;-80
2022/07/11 05:11:01;;;;;;;;;;;;;;;16.79;100.00;-25539.78;5056524;28;19920;-81
2022/07/11 05:13:27;;;;;;;;;;;;;;;16.69;100.00;-25537.03;5056737;28;19923;-80
2022/07/11 05:15:52;;;;;;;;;;;;;;;16.80;100.00;-25539.94;5056294;28;19912;-79
2022/07/11 05:18:18;;;;;;;;;;;;;;;16.78;100.00;-25539.50;5093440;28;20003;-79
2022/07/11 05:20:43;;;;;;;;;;;;;;;16.77;100.00;-25539.22;5071690;28;19935;-78
2022/07/11 05:23:08;;;;;;;;;;;;;;;16.69;100.00;-25536.88;5057350;28;20265;-78
2022/07/11 05:25:34;;;;;;;;;;;;;;;16.57;100.00;-25533.41;5094509;28;19948;-79
2022/07/11 05:28:00;;;;;;;;;;;;;;;16.60;100.00;-25534.28;5075504;28;19969;-81
2022/07/11 05:30:26;;;;;;;;;;;;;;;16.69;100.00;-25536.88;5076572;28;19920;-79
2022/07/11 05:32:53;;;;;;;;;;;;;;;16.64;100.00;-25535.44;5057928;28;19919;-80
2022/07/11 05:35:18;;;;;;;;;;;;;;;16.58;100.00;-25533.69;5057530;28;19935;-80
2022/07/11 05:37:44;;;;;;;;;;;;;;;16.60;100.00;-25534.41;5056768;28;20337;-79
2022/07/11 05:40:09;;;;;;;;;;;;;;;16.62;100.00;-25535.00;5089690;28;20006;-81
2022/07/11 05:42:35;;;;;;;;;;;;;;;16.55;100.00;-25532.81;5072799;28;19916;-80
2022/07/11 05:45:01;;;;;;;;;;;;;;;16.58;100.00;-25533.84;5056312;28;19912;-78
2022/07/11 05:47:26;;;;;;;;;;;;;;;16.58;100.00;-25533.69;5074326;28;19912;-80
2022/07/11 05:49:51;;;;;;;;;;;;;;;16.60;100.00;-25534.41;5036028;28;20621;-78
2022/07/11 05:52:17;;;;;;;;;;;;;;;16.63;100.00;-25535.16;5035775;28;19935;-78
2022/07/11 05:54:43;;;;;;;;;;;;;;;16.60;100.00;-25534.41;5052114;28;19917;-80
2022/07/11 05:57:08;;;;;;;;;;;;;;;16.62;100.00;-25534.84;5035646;28;19967;-79
2022/07/11 05:59:35;;;;;;;;;;;;;;;16.56;100.00;-25533.09;5053682;28;19912;-80
2022/07/11 06:02:01;;;;;;;;;;;;;;;16.51;100.00;-25531.81;5076173;28;19919;-78
2022/07/11 06:04:26;;;;;;;;;;;;;;;16.58;100.00;-25533.84;5075833;28;19911;-78
2022/07/11 06:06:52;;;;;;;;;;;;;;;16.50;100.00;-25531.53;5076319;28;19961;-79
2022/07/11 06:09:17;;;;;;;;;;;;;;;16.35;100.00;-25527.31;5094295;28;19919;-78
2022/07/11 06:11:42;;;;;;;;;;;;;;;16.36;100.00;-25527.44;5072703;28;19920;-77
2022/07/11 06:14:09;;;;;;;;;;;;;;;16.26;100.00;-25524.69;5055243;28;19957;-77
2022/07/11 06:16:35;;;;;;;;;;;;;;;16.29;100.00;-25525.72;5062204;28;19931;-77
2022/07/11 06:19:00;;;;;;;;;;;;;;;16.40;100.00;-25528.75;5081839;28;19913;-77
2022/07/11 06:21:25;;;;;;;;;;;;;;;16.45;100.00;-25530.06;5055412;28;19928;-77
2022/07/11 06:23:52;;;;;;;;;;;;;;;16.41;100.00;-25529.03;5064967;28;19919;-78
2022/07/11 06:26:17;;;;;;;;;;;;;;;16.51;100.00;-25531.94;5076052;28;19919;-79
2022/07/11 06:28:42;;;;;;;;;;;;;;;16.53;100.00;-25532.38;5063849;28;19945;-81
2022/07/11 06:31:10;;;;;;;;;;;;;;;16.47;100.00;-25530.66;5073527;28;19920;-80
2022/07/11 06:33:35;;;;;;;;;;;;;;;16.49;100.00;-25531.38;5075495;28;19916;-80
2022/07/11 06:36:01;;;;;;;;;;;;;;;16.55;100.00;-25532.97;5075327;28;19918;-81
2022/07/11 06:38:28;;;;;;;;;;;;;;;16.72;100.00;-25537.75;5075662;28;19919;-80
2022/07/11 06:41:08;;;;;;;;;;;;;;;16.92;100.00;-25543.28;5088790;28;19916;-79
2022/07/11 06:43:33;;;;;;;;;;;;;;;16.94;100.00;-25543.84;5055195;28;19919;-79
2022/07/11 06:46:00;;;;;;;;;;;;;;;17.11;100.00;-25548.63;5055039;28;19916;-80
2022/07/11 06:48:26;;;;;;;;;;;;;;;17.18;100.00;-25550.66;5066452;28;19912;-81
2022/07/11 06:50:52;;;;;;;;;;;;;;;17.23;100.00;-25552.25;5075084;28;19912;-80
2022/07/11 06:53:22;;;;;;;;;;;;;;;17.29;100.00;-25553.72;5075194;28;19919;-80
2022/07/11 06:55:48;;;;;;;;;;;;;;;17.13;100.00;-25549.22;5094487;28;19928;-80
2022/07/11 06:58:31;;;;;;;;;;;;;;;17.09;100.00;-25548.06;5076132;28;19957;-80
2022/07/11 07:00:57;;;;;;;;;;;;;;;17.08;100.00;-25547.78;5108424;28;19908;-80
2022/07/11 07:03:23;;;;;;;;;;;;;;;17.09;100.00;-25548.22;5074331;28;19923;-77
2022/07/11 07:05:48;;;;;;;;;;;;;;;17.14;100.00;-25549.66;5072763;28;19931;-77
2022/07/11 07:08:17;;;;;;;;;;;;;;;17.29;100.00;-25553.72;5072587;28;20365;-77
2022/07/11 07:10:42;;;;;;;;;;;;;;;17.39;100.00;-25556.63;5074123;28;19994;-78
2022/07/11 07:13:09;;;;;;;;;;;;;;;17.44;100.00;-25557.91;5074260;28;19924;-79
2022/07/11 07:15:34;;;;;;;;;;;;;;;17.36;100.00;-25555.75;5074952;28;19912;-80
2022/07/11 07:17:59;;;;;;;;;;;;;;;17.62;100.00;-25563.00;5067468;28;19912;-79
2022/07/11 07:20:26;;;;;;;;;;;;;;;17.70;100.00;-25565.44;5054374;28;19924;-79
2022/07/11 07:22:52;;;;;;;;;;;;;;;17.59;100.00;-25562.25;5054350;28;19916;-80
2022/07/11 07:25:17;;;;;;;;;;;;;;;17.54;100.00;-25560.81;5103691;28;19957;-78
2022/07/11 07:27:42;;;;;;;;;;;;;;;17.50;100.00;-25559.81;5074088;28;19912;-77
2022/07/11 07:30:08;;;;;;;;;;;;;;;17.32;100.00;-25554.72;5073911;28;20343;-77
2022/07/11 07:32:34;;;;;;;;;;;;;;;17.43;100.00;-25557.78;5075877;28;19923;-77
2022/07/11 07:35:01;;;;;;;;;;;;;;;17.59;100.00;-25562.41;5067499;28;19923;-81
2022/07/11 07:37:26;;;;;;;;;;;;;;;17.85;100.00;-25569.66;5074436;28;19960;-79
2022/07/11 07:39:52;;;;;;;;;;;;;;;17.79;100.00;-25567.91;5106384;28;19913;-80
2022/07/11 07:42:17;;;;;;;;;;;;;;;17.95;100.00;-25572.41;5087868;28;19912;-80
2022/07/11 07:44:44;;;;;;;;;;;;;;;17.98;100.00;-25573.13;5104261;28;19919;-78
2022/07/11 07:47:10;;;;;;;;;;;;;;;18.16;100.00;-25578.34;5104453;28;20236;-77
2022/07/11 07:49:35;;;;;;;;;;;;;;;18.25;100.00;-25580.94;5074299;28;19912;-77
2022/07/11 07:52:00;;;;;;;;;;;;;;;18.33;100.00;-25582.97;5073572;28;19912;-78
2022/07/11 07:54:26;;;;;;;;;;;;;;;18.53;100.00;-25588.63;5074285;28;19912;-77
2022/07/11 07:56:52;;;;;;;;;;;;;;;18.63;100.00;-25591.50;5092257;28;19912;-78
2022/07/11 07:59:17;;;;;;;;;;;;;;;18.60;100.00;-25590.78;5091760;28;19912;-78
2022/07/11 08:01:45;;;;;;;;;;;;;;;18.56;100.00;-25589.63;5073550;28;19980;-79
2022/07/11 08:04:13;;;;;;;;;;;;;;;18.80;100.00;-25596.41;5075199;28;20386;-78
2022/07/11 08:06:38;;;;;;;;;;;;;;;18.80;100.00;-25596.41;5094197;28;19912;-78
2022/07/11 08:09:04;;;;;;;;;;;;;;;18.78;100.00;-25595.69;5092198;28;20368;-78
2022/07/11 08:11:30;;;;;;;;;;;;;;;18.89;100.00;-25598.88;5073490;28;19916;-80
2022/07/11 08:13:58;;;;;;;;;;;;;;;18.86;100.00;-24273.06;5081322;28;19931;-79
2022/07/11 08:16:23;;;;;;;;;;;;;;;18.89;100.00;-23281.50;5090256;28;19953;-79
2022/07/11 08:18:48;;;;;;;;;;;;;;;18.99;100.00;-22291.09;5088352;28;19916;-81
2022/07/11 08:21:14;;;;;;;;;;;;;;;19.13;100.00;-22294.28;5079881;28;19975;-81
2022/07/11 08:23:41;;;;;;;;;;;;;;;18.69;100.00;-20629.38;5083614;28;19919;-81
2022/07/11 08:26:07;;;;;;;;;;;;;;;18.50;100.00;-20625.59;5076544;28;20470;-80
2022/07/11 08:28:32;;;;;;;;;;;;;;;18.54;100.00;-21288.13;5095897;28;20007;-80
2022/07/11 08:30:57;;;;;;;;;;;;;;;18.70;100.00;-22284.38;5060544;28;19924;-80
2022/07/11 08:33:24;;;;;;;;;;;;;;;18.54;100.00;-21949.91;5063893;28;19958;-78
2022/07/11 08:35:49;;;;;;;;;;;;;;;18.27;100.00;-23596.78;5055719;28;19923;-78
2022/07/11 08:38:14;;;;;;;;;;;;;;;18.18;100.00;-25576.97;5057100;28;19921;-78
2022/07/11 08:40:43;;;;;;;;;;;;;;;18.46;100.00;-25586.72;5056054;28;20416;-79
2022/07/11 08:43:21;;;;;;;;;;;;;;;18.63;100.00;-25591.50;5039898;28;19924;-77
2022/07/11 08:45:47;;;;;;;;;;;;;;;18.93;100.00;-25600.03;5056596;28;20262;-80
2022/07/11 08:48:13;;;;;;;;;;;;;;;18.95;100.00;-23282.88;5057343;28;19912;-79
2022/07/11 08:50:38;;;;;;;;;;;;;;;19.09;100.00;-21962.13;5071628;28;19937;-78
2022/07/11 08:53:05;;;;;;;;;;;;;;;19.30;100.00;-21304.50;5075698;28;19995;-78
2022/07/11 08:55:30;;;;;;;;;;;;;;;19.44;100.00;-18987.41;5075053;28;19915;-77
2022/07/11 08:57:58;;;;;;;;;;;;;;;19.54;100.00;-16335.50;5093905;28;20382;-79
2022/07/11 09:00:25;;;;;;;;;;;;;;;19.64;100.00;-14013.06;5087182;28;19917;-79
2022/07/11 09:02:52;;;;;;;;;;;;;;;19.51;100.00;-11022.53;5073861;28;19912;-79
2022/07/11 09:05:17;;;;;;;;;;;;;;;19.77;100.00;-13017.78;5056984;28;19919;-80
2022/07/11 09:07:44;;;;;;;;;;;;;;;19.88;100.00;-9361.81;5077910;28;19924;-82
2022/07/11 09:10:10;;;;;;;;;;;;;;;19.91;100.00;-8363.91;5036229;28;19958;-78
2022/07/11 09:12:35;;;;;;;;;;;;;;;19.81;100.00;-5035.84;5035100;28;19925;-79
2022/07/11 09:15:00;;;;;;;;;;;;;;;19.58;100.00;-2706.38;5035881;28;20015;-81
2022/07/11 09:17:27;;;;;;;;;;;;;;;19.87;100.00;-3370.38;5035964;28;19913;-78
2022/07/11 09:19:52;;;;;;;;;;;;;;;20.02;100.00;-3036.09;5052580;28;19948;-79
2022/07/11 09:25:21;;;;;;;;;;;;;;;20.17;100.00;-2368.38;5054104;28;20003;-81
2022/07/11 09:27:56;;;;;;;;;;;;;;;20.20;100.00;-1034.38;5066802;28;19917;-79
2022/07/11 09:30:21;;;;;;;;;;;;;;;20.48;100.00;1972.47;5059624;28;19917;-79
2022/07/11 09:32:58;;;;;;;;;;;;;;;20.57;100.00;3644.06;5046817;28;19913;-77
2022/07/11 09:35:25;;;;;;;;;;;;;;;20.68;100.00;5651.41;5047452;28;19932;-77
2022/07/11 09:37:50;;;;;;;;;;;;;;;19.94;100.00;10313.69;5058808;28;19927;-77
2022/07/11 09:40:17;;;;;;;;;;;;;;;20.03;100.00;8644.75;5064630;28;19916;-77
2022/07/11 09:42:46;;;;;;;;;;;;;;;20.73;100.00;2978.53;5042045;28;20359;-79
2022/07/11 09:45:12;;;;;;;;;;;;;;;21.08;100.00;9676.38;5055286;28;19995;-81
2022/07/11 09:47:47;;;;;;;;;;;;;;;20.96;100.00;20066.22;5047428;28;19921;-80
2022/07/11 09:50:13;;;;;;;;;;;;;;;20.83;100.00;23754.44;5083821;28;20568;-82
2022/07/11 09:52:38;;;;;;;;;;;;;;;20.85;100.00;25771.53;5055774;28;19913;-77
2022/07/11 09:55:05;;;;;;;;;;;;;;;20.81;100.00;23081.56;5089323;28;19912;-76
2022/07/11 09:57:39;;;;;;;;;;;;;;;20.98;100.00;16711.31;5055389;28;19919;-78
2022/07/11 10:00:06;;;;;;;;;;;;;;;20.97;100.00;16710.91;5054809;28;19947;-80
2022/07/11 10:02:31;;;;;;;;;;;;;;;20.84;100.00;22747.16;5087439;28;20011;-78
2022/07/11 10:05:00;;;;;;;;;;;;;;;21.09;100.00;19400.34;5054338;28;20478;-79
2022/07/11 10:07:26;;;;;;;;;;;;;;;21.61;100.00;21775.31;5089042;28;19916;-80
2022/07/11 10:09:52;;;;;;;;;;;;;;;21.86;100.00;48448.22;5072401;28;19912;-79
2022/07/11 10:12:17;;;;;;;;;;;;;;;21.86;100.00;90320.16;5041789;28;19916;-80
2022/07/11 10:14:43;;;;;;;;;;;;;;;21.90;100.00;148226.28;5052283;28;19934;-80
2022/07/11 10:17:15;;;;;;;;;;;;;;;21.74;100.00;148186.56;5034286;28;19919;-78
2022/07/11 10:19:47;;;;;;;;;;;;;;;21.34;100.00;148086.50;5035240;28;19913;-79
2022/07/11 10:22:25;;;;;;;;;;;;;;;21.69;100.00;148175.00;5030107;28;19966;-77
2022/07/11 10:25:02;;;;;;;;;;;;;;;21.83;100.00;148209.63;5068307;28;20011;-77
2022/07/11 10:27:50;;;;;;;;;;;;;;;21.96;100.00;148240.41;5034670;28;19958;-79
2022/07/11 10:30:36;;;;;;;;;;;;;;;22.11;100.00;148277.59;5037097;28;19917;-77
2022/07/11 10:33:04;;;;;;;;;;;;;;;22.13;100.00;148282.75;5053941;28;19966;-75
2022/07/11 10:35:30;;;;;;;;;;;;;;;22.00;100.00;148250.66;5054172;28;19985;-76
2022/07/11 10:37:56;;;;;;;;;;;;;;;21.77;100.00;148194.25;5053949;28;19916;-79
2022/07/11 10:40:40;;;;;;;;;;;;;;;21.83;100.00;148208.31;5072028;28;19919;-75
2022/07/11 10:43:07;;;;;;;;;;;;;;;22.27;100.00;148318.66;5087962;28;19959;-77
2022/07/11 10:45:51;;;;;;;;;;;;;;;22.98;100.00;148494.44;5054340;28;19912;-77
2022/07/11 10:48:16;;;;;;;;;;;;;;;22.80;100.00;148450.84;5076481;28;20000;-76
2022/07/11 10:50:43;;;;;;;;;;;;;;;21.75;100.00;148189.13;5034792;28;19962;-78
2022/07/11 10:53:09;;;;;;;;;;;;;;;21.46;100.00;148116.00;5034507;28;19913;-79
2022/07/11 10:55:35;;;;;;;;;;;;;;;21.52;100.00;148132.69;5034241;28;19913;-78
2022/07/11 10:58:21;;;;;;;;;;;;;;;21.73;100.00;148183.97;5059561;28;20015;-81
2022/07/11 11:00:48;;;;;;;;;;;;;;;22.21;100.00;148304.53;5053327;28;19962;-78
2022/07/11 11:03:16;;;;;;;;;;;;;;;21.50;100.00;148127.59;5069746;28;20023;-81
2022/07/11 11:05:44;;;;;;;;;;;;;;;21.59;100.00;148149.34;5034350;28;19916;-79
2022/07/11 11:08:28;;;;;;;;;;;;;;;21.45;100.00;148114.69;5052391;28;19963;-77
2022/07/11 11:10:53;;;;;;;;;;;;;;;21.84;100.00;148212.16;5050660;28;20000;-76
2022/07/11 11:13:20;;;;;;;;;;;;;;;21.61;100.00;148153.19;5051747;28;19948;-77
2022/07/11 11:15:49;;;;;;;;;;;;;;;22.46;100.00;148366.16;5054900;28;19912;-80
2022/07/11 11:18:23;;;;;;;;;;;;;;;22.48;100.00;148371.31;5054428;28;20449;-77
2022/07/11 11:21:07;;;;;;;;;;;;;;;22.74;100.00;148435.44;5054062;28;19916;-77
2022/07/11 11:23:34;;;;;;;;;;;;;;;22.40;100.00;148350.75;5054257;28;20306;-79
2022/07/11 11:26:05;;;;;;;;;;;;;;;22.71;100.00;148429.00;5053884;28;20360;-78
2022/07/11 11:28:31;;;;;;;;;;;;;;;23.29;100.00;148574.09;5042406;28;20280;-82
2022/07/11 11:30:57;;;;;;;;;;;;;;;23.44;100.00;148611.28;5033777;28;19916;-78
2022/07/11 11:33:26;;;;;;;;;;;;;;;23.85;100.00;148712.81;5033356;28;20007;-78
2022/07/11 11:36:18;;;;;;;;;;;;;;;23.58;100.00;148645.94;5034473;28;20004;-79
2022/07/11 11:38:44;;;;;;;;;;;;;;;23.12;100.00;148530.47;5031863;28;19970;-81
2022/07/11 11:41:10;;;;;;;;;;;;;;;22.92;100.00;148481.63;5034875;28;19920;-81
2022/07/11 11:43:39;;;;;;;;;;;;;;;22.42;100.00;148355.91;5034307;28;20372;-81
2022/07/11 11:46:04;;;;;;;;;;;;;;;22.32;100.00;148330.25;5068464;28;19917;-82
2022/07/11 11:48:30;;;;;;;;;;;;;;;22.74;100.00;148435.44;5034875;28;20004;-81
2022/07/11 11:51:02;;;;;;;;;;;;;;;23.06;100.00;148515.03;5034405;28;19917;-81
2022/07/11 11:53:30;;;;;;;;;;;;;;;22.72;100.00;148430.31;5084073;28;19999;-81
2022/07/11 11:55:56;;;;;;;;;;;;;;;23.16;100.00;148540.72;5057384;28;20006;-81
2022/07/11 11:58:21;;;;;;;;;;;;;;;23.43;100.00;148607.44;5086109;28;19959;-79
2022/07/11 12:00:56;;;;;;;;;;;;;;;23.63;100.00;148658.81;5054195;28;19913;-79
2022/07/11 12:03:22;;;;;;;;;;;;;;;23.48;100.00;148621.56;5037209;28;19954;-76
2022/07/11 12:05:57;;;;;;;;;;;;;;;23.44;100.00;148610.03;5036979;28;19948;-76
2022/07/11 12:08:26;;;;;;;;;;;;;;;23.27;100.00;148567.66;5037340;28;19916;-78
2022/07/11 12:10:55;;;;;;;;;;;;;;;22.92;100.00;148481.63;5038681;28;19913;-78
2022/07/11 12:13:23;;;;;;;;;;;;;;;22.34;100.00;148335.34;5053039;28;20332;-79
2022/07/11 12:18:37;;;;;;;;;;;;;;;23.10;100.00;148526.63;5074400;28;20351;-79
2022/07/11 12:21:10;;;;;;;;;;;;;;;23.51;100.00;148626.69;5072593;28;19935;-79
2022/07/11 12:23:35;;;;;;;;;;;;;;;23.38;100.00;148595.88;5073508;28;19928;-77
2022/07/11 12:26:00;;;;;;;;;;;;;;;23.34;100.00;148585.66;5056786;28;19908;-76
2022/07/11 12:28:26;;;;;;;;;;;;;;;23.59;100.00;148648.53;5056285;28;19961;-81
2022/07/11 12:30:56;;;;;;;;;;;;;;;23.60;100.00;148649.81;5068906;28;20007;-80
2022/07/11 12:33:23;;;;;;;;;;;;;;;23.23;100.00;148557.41;5076765;28;20049;-82